Cebollita Spring, Valles Caldera, New Mexico Weather observations

Data are for 10 minute period ending at time listed.
 Day   Time   Solar   Ave.   Ave.  Ave.  Vector  Max.   Baro.   Total    
  of    of     Rad.   Air    Rel.  Wind   Wind   Wind  Press.  Precip.   
Year   Day            Temp.  Hum.  Speed  Dir.   Gust                    
2016   (MST)  Kw/m2    F      %     mph   deg.    mph    mb.     in.     
-------------------------------------------------------------------------
 273   22:30   0.00   44.6   100    1.2     2     3.0   99999.0    0.00 
 273   22:40   0.00   43.9   100    0.5    38     2.4   99999.0    0.00 
 273   22:50   0.00   43.5   100    1.0    64     2.4   99999.0    0.00 
 273   23:00   0.00   43.5   100    0.0     0     0.0   99999.0    0.00 
 273   23:10   0.00   43.7   100    0.7    69     2.4   99999.0    0.00 
 273   23:20   0.00   43.8   100    0.1    74     1.8   99999.0    0.00 
 273   23:30   0.00   43.9   100    0.2    52     1.8   99999.0    0.00 
 273   23:40   0.00   44.0   100    0.0     0     0.0   99999.0    0.00 
 273   23:50   0.00   44.0   100    0.1    71     1.2   99999.0    0.00 
 274    0:00   0.00   43.7   100    0.3    96     1.8   99999.0    0.00 
 274    0:10   0.00   43.4   100    1.0    84     3.6   99999.0    0.00 
 274    0:20   0.00   43.2   100    1.2   109     4.2   99999.0    0.00 
 274    0:30   0.00   43.4   100    0.9   114     3.0   99999.0    0.00 
 274    0:40   0.00   43.6   100    0.6   130     3.0   99999.0    0.00 
 274    0:50   0.00   43.5   100    0.4   141     3.0   99999.0    0.00 
 274    1:00   0.00   43.3   100    0.0     0     0.0   99999.0    0.00 
 274    1:10   0.00   43.0   100    0.0    97     1.2   99999.0    0.00 
 274    1:20   0.00   42.8   100    0.7   114     2.4   99999.0    0.00 
 274    1:30   0.00   42.4   100    0.3   103     1.2   99999.0    0.00 
 274    1:40   0.00   41.8   100    0.5   116     2.4   99999.0    0.00 
 274    1:50   0.00   42.0   100    0.3   148     2.4   99999.0    0.00 
 274    2:00   0.00   42.6   100    0.7   143     3.0   99999.0    0.00 
 274    2:10   0.00   43.4   100    0.8   130     2.4   99999.0    0.00 
 274    2:20   0.00   43.9   100    0.4   158     2.4   99999.0    0.00 
 274    2:30   0.00   44.1   100    1.1    78     3.6   99999.0    0.00 
 274    2:40   0.00   44.5   100    1.5    65     3.0   99999.0    0.00 
 274    2:50   0.00   44.3   100    0.0    51     1.2   99999.0    0.00 
 274    3:00   0.00   44.2   100    0.6    52     2.4   99999.0    0.00 
 274    3:10   0.00   44.3   100    2.4    75     4.2   99999.0    0.00 
 274    3:20   0.00   44.3   100    2.2    74     3.9   99999.0    0.00 
 274    3:30   0.00   43.9   100    1.0     2     3.0   99999.0    0.00 
 274    3:40   0.00   43.6   100    0.7   334     2.4   99999.0    0.00 
 274    3:50   0.00   43.9   100    1.7     5     3.0   99999.0    0.00 
 274    4:00   0.00   43.9   100    2.0    68     4.8   99999.0    0.00 
 274    4:10   0.00   43.9   100    2.2    78     4.8   99999.0    0.00 
 274    4:20   0.00   44.3   100    0.8    56     3.0   99999.0    0.00 
 274    4:30   0.00   44.4   100    0.6   356     1.8   99999.0    0.00 
 274    4:40   0.00   44.0   100    0.0    54     1.2   99999.0    0.00 
 274    4:50   0.00   43.5   100    1.1    58     3.0   99999.0    0.01 
 274    5:00   0.00   43.1   100    0.0     9     1.2   99999.0    0.00 
 274    5:10   0.00   42.5   100    1.2    74     3.0   99999.0    0.00 
 274    5:20   0.00   42.1   100    1.2    22     2.4   99999.0    0.00 
 274    5:30   0.00   41.7   100    1.1    56     3.0   99999.0    0.00 
 274    5:40   0.00   41.1   100    0.6    46     1.8   99999.0    0.00 
 274    5:50   0.00   40.2   100    0.5    51     1.8   99999.0    0.00 
 274    6:00   0.00   39.2   100    1.0    58     2.4   99999.0    0.00 
 274    6:10   0.00   38.6   100    0.8    67     2.4   99999.0    0.00 
 274    6:20   0.01   38.3   100    0.7    67     2.4   99999.0    0.00 
 274    6:30   0.01   38.2   100    0.1    71     1.2   99999.0    0.00 
 274    6:40   0.01   38.1   100    0.6    81     2.4   99999.0    0.00 
 274    6:50   0.02   38.3   100    0.8    78     2.4   99999.0    0.00 
 274    7:00   0.03   39.2   100    0.0    79     1.2   99999.0    0.00 
 274    7:10   0.03   40.5   100    0.4    80     1.8   99999.0    0.00 
 274    7:20   0.08   42.0   100    0.0     0     0.0   99999.0    0.00 
 274    7:30   0.16   43.6   100    0.2   114     2.4   99999.0    0.00 
 274    7:40   0.22   45.0   100    0.0   116     1.5   99999.0    0.00 
 274    7:50   0.24   46.9   100    1.7   339     3.6   99999.0    0.00 
 274    8:00   0.26   49.7    86    1.3   334     4.8   99999.0    0.00 
 274    8:10   0.28   51.6    75    0.4   339     3.0   99999.0    0.00 
 274    8:20   0.31   53.3    73    2.6   308     9.0   99999.0    0.00 
 274    8:30   0.34   54.5    68    4.7   327     9.3   99999.0    0.00 
 274    8:40   0.37   55.0    66    5.8   327    10.5   99999.0    0.00 
 274    8:50   0.40   56.0    64    4.5   333     9.6   99999.0    0.00 
 274    9:00   0.42   57.2    62    5.6   305    12.5   99999.0    0.00 
 274    9:10   0.45   57.7    59    5.9   317    10.2   99999.0    0.00 
 274    9:20   0.39   58.3    58    6.8   289    15.5   99999.0    0.00 
 274    9:30   0.18   57.7    58    4.1   283     9.6   99999.0    0.00 
 274    9:40   0.36   57.8    57    6.4   289    10.8   99999.0    0.00 
 274    9:50   0.18   58.1    55    5.8   307    12.5   99999.0    0.00 
 274   10:00   0.34   58.1    55    4.6   306     9.6   99999.0    0.00 
 274   10:10   0.16   58.2    54    6.1   295    11.3   99999.0    0.00 
 274   10:20   0.61   59.6    53    5.1   265    10.2   99999.0    0.00 
 274   10:30   0.44   60.9    49    5.1   288    11.9   99999.0    0.00 
 274   10:40   0.64   61.4    48    5.7   321    10.8   99999.0    0.00 
 274   10:50   0.34   60.6    50    5.2   297    11.9   99999.0    0.00 
 274   11:00   0.60   61.9    48    5.6   253    11.1   99999.0    0.00 
 274   11:10   0.64   63.6    46    5.3   314    10.2   99999.0    0.00 
 274   11:20   0.67   63.6    44    6.9   299    13.1   99999.0    0.00 
 274   11:30   0.40   63.1    46    6.4   308    14.3   99999.0    0.00 
 274   11:40   0.25   60.9    47    6.5   269    12.5   99999.0    0.00 
 274   11:50   0.38   60.8    48    5.9   289    15.2   99999.0    0.00 
 274   12:00   0.35   61.9    46    6.1   287    13.1   99999.0    0.00 
 274   12:10   0.37   62.7    44    7.3   310    13.7   99999.0    0.00 
 274   12:20   0.53   61.2    46    6.1   293    11.9   99999.0    0.00 
 274   12:30   0.37   63.8    41    7.1   283    11.9   99999.0    0.00 
 274   12:40   0.43   61.9    42    4.1   289    13.7   99999.0    0.00 
 274   12:50   0.40   63.3    40    6.5   337    16.1   99999.0    0.00 
 274   13:00   0.64   64.5    36    6.8   287    12.5   99999.0    0.00 
 274   13:10   0.63   65.7    34    7.1   247    14.3   99999.0    0.00 
 274   13:20   0.61   65.9    33    7.8   267    14.3   99999.0    0.00 
 274   13:30   0.56   66.0    34    6.7   296    12.5   99999.0    0.00 
 274   13:40   0.58   66.2    31    6.8   287    13.1   99999.0    0.00 
 274   13:50   0.56   66.6    32    5.4   264    12.5   99999.0    0.00 
 274   14:00   0.56   67.5    32    7.8   308    17.9   99999.0    0.00 
 274   14:10   0.35   65.5    34    7.8   293    16.7   99999.0    0.00 
 274   14:20   0.47   64.8    34    6.5   296    16.1   99999.0    0.00 
 274   14:30   0.50   66.4    30    7.0   269    13.1   99999.0    0.00 
 274   14:40   0.31   64.8    34    7.0   258    12.5   99999.0    0.00 
 274   14:50   0.44   66.0    34    7.9   269    14.9   99999.0    0.00 
 274   15:00   0.33   64.9    35    5.8   288     9.6   99999.0    0.00 
 274   15:10   0.41   66.7    31    5.6   271    10.8   99999.0    0.00 
 274   15:20   0.38   66.5    28    8.2   267    13.7   99999.0    0.00 
 274   15:30   0.35   65.7    28    8.4   276    17.3   99999.0    0.00 
 274   15:40   0.33   65.6    29    6.8   271    12.5   99999.0    0.00 
 274   15:50   0.30   65.6    30    5.8   269    13.1   99999.0    0.00 
 274   16:00   0.27   65.6    31    5.8   268    13.7   99999.0    0.00 
 274   16:10   0.24   65.1    32    5.9   267    10.8   99999.0    0.00 
 274   16:20   0.22   65.3    32    5.6   283    10.8   99999.0    0.00 
 274   16:30   0.19   64.6    31    5.4   268    11.3   99999.0    0.00 
 274   16:40   0.17   63.8    33    6.1   276    12.5   99999.0    0.00 
 274   16:50   0.14   63.0    35    6.9   272    12.5   99999.0    0.00 
 274   17:00   0.12   62.6    36    6.3   274    13.7   99999.0    0.00 
 274   17:10   0.10   61.6    38    6.8   284    11.3   99999.0    0.00 
 274   17:20   0.07   60.4    39    6.5   279    11.3   99999.0    0.00 
 274   17:30   0.05   59.5    41    5.4   271     9.0   99999.0    0.00 
 274   17:40   0.03   58.6    43    4.8   278    10.8   99999.0    0.00 
 274   17:50   0.01   57.8    44    5.4   272    10.2   99999.0    0.00 
 274   18:00   0.00   56.6    46    4.1   283     9.0   99999.0    0.00 
 274   18:10   0.00   55.5    48    3.3   287     7.8   99999.0    0.00 
 274   18:20   0.00   54.6    49    3.1   300     7.2   99999.0    0.00 
 274   18:30   0.00   53.3    52    3.2   303     6.6   99999.0    0.00 
 274   18:40   0.00   52.1    54    3.6   292     7.2   99999.0    0.00 
 274   18:50   0.00   51.4    56    4.4   294     7.8   99999.0    0.00 
 274   19:00   0.00   50.8    57    4.4   296     7.2   99999.0    0.00 
 274   19:10   0.00   51.6    54    5.4   292    10.2   99999.0    0.00 
 274   19:20   0.00   51.7    53    4.4   292     8.4   99999.0    0.00 
 274   19:30   0.00   50.5    54    4.3   298     7.8   99999.0    0.00 
 274   19:40   0.00   50.5    54    5.8   304     9.0   99999.0    0.00 
 274   19:50   0.00   51.4    52    5.0   300     9.0   99999.0    0.00 
 274   20:00   0.00   50.6    53    4.9   302     7.8   99999.0    0.00 
 274   20:10   0.00   49.9    55    4.2   314     7.2   99999.0    0.00 
 274   20:20   0.00   48.7    58    4.4   322     6.6   99999.0    0.00 
 274   20:30   0.00   47.0    62    4.2   319     6.9   99999.0    0.00 
 274   20:40   0.00   45.9    65    4.5   326     7.2   99999.0    0.00 
 274   20:50   0.00   45.4    67    3.0   326     5.4   99999.0    0.00 
 274   21:00   0.00   44.4    69    2.7   338     4.2   99999.0    0.00 
 274   21:10   0.00   43.6    73    3.3   334     6.0   99999.0    0.00 
 274   21:20   0.00   43.1    73    3.3   337     6.0   99999.0    0.00 
 274   21:30   0.00   42.4    77    3.7   331     6.6   99999.0    0.00 
 274   21:40   0.00   42.0    79    3.2   330     6.0   99999.0    0.00 
 274   21:50   0.00   42.1    81    4.2   336     7.2   99999.0    0.00 
 274   22:00   0.00   42.9    81    4.7   338     7.8   99999.0    0.00 
 274   22:10   0.00   43.5    79    4.7   339     7.2   99999.0    0.00 
 274   22:20   0.00   43.6    79    3.9   334     6.0   99999.0    0.00 

Return to Cebollita Spring, Valles Caldera graphs page.


Western Regional Climate Center,wrcc@dri.edu